Time;durP1;ratioP1;P1;durP2;ratioP2;P2;SDS_P1;SDS_P2;PMS_P1;PMS_P2;Temp;Humidity;BMP_temperature;BMP_pressure;BME280_temperature;BME280_humidity;BME280_pressure;Samples;Min_cycle;Max_cycle;Signal;HPM_P1;HPM_P2
2023/10/19 00:00:40;;;;;;;18.23;5.80;;;6.20;93.10;;;;;;4981452;28;20051;-70
2023/10/19 00:03:07;;;;;;;16.77;6.20;;;6.20;92.70;;;;;;4982421;28;20156;-71
2023/10/19 00:05:35;;;;;;;16.25;7.13;;;6.20;92.50;;;;;;4982949;28;20096;-71
2023/10/19 00:08:22;;;;;;;9.82;4.97;;;6.30;92.30;;;;;;4984007;28;20097;-71
2023/10/19 00:11:10;;;;;;;12.65;5.75;;;6.30;92.30;;;;;;4980587;28;20101;-71
2023/10/19 00:13:39;;;;;;;13.85;6.03;;;6.30;92.00;;;;;;4981024;28;20138;-71
2023/10/19 00:16:16;;;;;;;13.35;5.38;;;6.30;92.10;;;;;;4983898;28;20054;-71
2023/10/19 00:18:44;;;;;;;10.80;5.78;;;6.40;92.00;;;;;;4979165;28;20052;-70
2023/10/19 00:21:22;;;;;;;12.13;5.80;;;6.40;91.50;;;;;;4981807;28;20105;-70
2023/10/19 00:23:56;;;;;;;18.88;6.70;;;6.40;91.50;;;;;;4977567;28;20050;-71
2023/10/19 00:26:29;;;;;;;14.73;6.00;;;6.40;91.60;;;;;;4984296;28;20770;-71
2023/10/19 00:28:56;;;;;;;12.60;5.38;;;6.40;91.40;;;;;;4983587;28;20082;-71
2023/10/19 00:31:24;;;;;;;11.52;5.20;;;6.40;91.10;;;;;;4984806;28;20859;-71
2023/10/19 00:33:51;;;;;;;11.50;5.47;;;6.50;91.00;;;;;;4981273;28;20047;-68
2023/10/19 00:36:22;;;;;;;18.15;5.43;;;6.50;91.30;;;;;;4980398;28;20448;-68
2023/10/19 00:41:30;;;;;;;17.02;6.10;;;6.50;91.40;;;;;;4983406;28;20403;-68
2023/10/19 00:44:10;;;;;;;11.23;5.35;;;6.50;91.50;;;;;;4982868;28;20415;-70
2023/10/19 00:49:12;;;;;;;16.88;6.70;;;6.50;91.80;;;;;;4982105;28;20103;-70
2023/10/19 00:51:56;;;;;;;14.35;6.22;;;6.50;91.40;;;;;;4981769;28;20100;-71
2023/10/19 00:54:32;;;;;;;12.18;5.53;;;6.50;91.20;;;;;;4981742;28;20050;-71
2023/10/19 00:57:06;;;;;;;14.25;6.40;;;6.50;91.40;;;;;;4980924;28;20046;-71
2023/10/19 00:59:43;;;;;;;17.80;6.10;;;6.50;91.30;;;;;;4981005;28;20472;-70
2023/10/19 01:02:45;;;;;;;12.65;5.63;;;6.50;90.80;;;;;;4983385;28;20081;-71
2023/10/19 01:05:06;;;;;;;14.43;6.60;;;6.50;91.20;;;;;;4980825;28;20150;-71
2023/10/19 01:07:38;;;;;;;13.65;6.38;;;6.50;90.90;;;;;;4981454;28;20152;-71
2023/10/19 01:10:19;;;;;;;17.35;6.03;;;6.50;91.10;;;;;;4983945;28;20050;-70
2023/10/19 01:12:47;;;;;;;19.73;7.00;;;6.60;90.50;;;;;;4981352;28;20081;-68
2023/10/19 01:17:56;;;;;;;15.80;6.50;;;6.60;90.10;;;;;;4982818;28;20100;-68
2023/10/19 01:25:59;;;;;;;14.93;6.57;;;6.70;89.30;;;;;;4982878;28;20050;-71
2023/10/19 01:34:06;;;;;;;15.43;6.95;;;6.70;89.10;;;;;;4982464;28;20050;-71
2023/10/19 01:36:42;;;;;;;20.48;7.15;;;6.70;89.00;;;;;;4980604;28;20450;-71
2023/10/19 01:39:09;;;;;;;13.90;6.85;;;6.80;88.70;;;;;;4977594;28;20153;-71
2023/10/19 01:41:37;;;;;;;14.55;7.05;;;6.70;88.70;;;;;;4983126;28;20104;-71
2023/10/19 01:44:06;;;;;;;18.80;6.60;;;6.70;88.70;;;;;;4983440;28;21708;-71
2023/10/19 01:46:36;;;;;;;19.10;7.15;;;6.80;88.70;;;;;;4986422;28;20138;-71
2023/10/19 01:49:04;;;;;;;15.00;6.72;;;6.80;88.70;;;;;;4984284;28;20547;-71
2023/10/19 01:51:33;;;;;;;14.00;7.47;;;6.80;88.70;;;;;;4974869;28;20149;-70
2023/10/19 01:54:03;;;;;;;20.17;7.43;;;6.80;89.00;;;;;;4983233;28;20050;-71
2023/10/19 01:56:30;;;;;;;15.88;6.88;;;6.80;88.40;;;;;;4985108;28;20615;-71
2023/10/19 01:58:58;;;;;;;19.83;7.72;;;6.80;88.20;;;;;;4986233;28;20046;-71
2023/10/19 02:03:58;;;;;;;16.98;7.18;;;6.80;88.00;;;;;;4986515;28;20058;-71
2023/10/19 02:06:40;;;;;;;18.17;7.32;;;6.80;87.90;;;;;;4984945;28;20745;-70
2023/10/19 02:09:23;;;;;;;17.25;7.78;;;6.80;88.00;;;;;;4983200;28;20061;-71
2023/10/19 02:11:55;;;;;;;20.00;7.68;;;6.80;87.70;;;;;;4984748;28;20058;-71
2023/10/19 02:14:24;;;;;;;21.33;7.60;;;6.80;87.90;;;;;;4984535;28;20090;-70
2023/10/19 02:16:56;;;;;;;19.02;7.40;;;6.80;87.90;;;;;;4978706;28;20384;-71
2023/10/19 02:19:25;;;;;;;15.07;7.65;;;6.80;87.90;;;;;;4985205;28;20069;-71
2023/10/19 02:21:55;;;;;;;19.05;7.15;;;6.80;87.70;;;;;;4980735;28;20537;-71
2023/10/19 02:24:22;;;;;;;18.35;7.00;;;6.80;87.90;;;;;;4984494;28;20110;-71
2023/10/19 02:30:40;;;;;;;22.00;8.38;;;6.80;87.90;;;;;;4959095;28;20095;-77
2023/10/19 02:33:08;;;;;;;18.48;7.22;;;6.80;88.10;;;;;;4966294;28;20490;-76
2023/10/19 02:35:37;;;;;;;14.90;6.90;;;6.70;88.60;;;;;;4966861;28;20341;-76
2023/10/19 02:38:04;;;;;;;18.45;7.13;;;6.70;88.70;;;;;;4963521;28;20475;-77
2023/10/19 02:40:31;;;;;;;18.50;6.40;;;6.70;88.70;;;;;;4965605;28;20102;-76
2023/10/19 02:43:03;;;;;;;14.20;6.55;;;6.70;89.00;;;;;;4973349;28;20407;-76
2023/10/19 02:45:30;;;;;;;12.57;7.05;;;6.70;89.50;;;;;;4965937;28;20054;-77
2023/10/19 02:47:58;;;;;;;14.73;7.60;;;6.60;89.80;;;;;;4965452;28;20050;-76
2023/10/19 02:50:26;;;;;;;15.38;6.80;;;6.60;90.00;;;;;;4965491;28;20043;-76
2023/10/19 02:52:53;;;;;;;19.67;6.75;;;6.60;90.10;;;;;;4964605;28;20054;-77
2023/10/19 02:55:24;;;;;;;18.33;7.68;;;6.60;90.30;;;;;;4965467;28;20751;-76
2023/10/19 02:57:52;;;;;;;21.27;7.53;;;6.60;90.60;;;;;;4967507;28;20491;-76
2023/10/19 03:00:20;;;;;;;18.67;7.07;;;6.50;90.60;;;;;;4964953;28;20059;-76
2023/10/19 03:02:48;;;;;;;14.45;7.43;;;6.60;90.50;;;;;;4965678;28;20128;-76
2023/10/19 03:05:17;;;;;;;13.20;6.88;;;6.50;90.50;;;;;;4965159;28;20088;-76
2023/10/19 03:07:44;;;;;;;18.25;7.18;;;6.50;90.90;;;;;;4964077;28;20047;-76
2023/10/19 03:10:25;;;;;;;14.57;7.15;;;6.50;90.90;;;;;;4965963;28;20046;-77
2023/10/19 03:12:52;;;;;;;16.23;7.75;;;6.50;91.00;;;;;;4965620;28;20158;-76
2023/10/19 03:15:20;;;;;;;15.38;7.15;;;6.50;91.10;;;;;;4969076;28;20069;-76
2023/10/19 03:17:48;;;;;;;15.35;6.90;;;6.50;91.20;;;;;;4967227;28;20058;-76
2023/10/19 03:20:23;;;;;;;21.08;7.35;;;6.50;90.70;;;;;;4965771;28;20144;-76
2023/10/19 03:22:50;;;;;;;22.08;7.68;;;6.50;91.20;;;;;;4966426;28;20444;-74
2023/10/19 03:28:10;;;;;;;19.33;8.23;;;6.50;90.10;;;;;;4967351;28;20051;-76
2023/10/19 03:30:40;;;;;;;18.08;7.53;;;6.50;90.10;;;;;;4966032;28;20054;-76
2023/10/19 03:33:08;;;;;;;22.13;7.47;;;6.50;89.70;;;;;;4966040;28;20069;-76
2023/10/19 03:35:42;;;;;;;17.02;6.50;;;6.50;89.60;;;;;;4966516;28;20555;-75
2023/10/19 03:38:16;;;;;;;19.55;7.93;;;6.50;89.80;;;;;;4965482;28;20051;-76
2023/10/19 03:40:51;;;;;;;17.92;7.45;;;6.60;89.10;;;;;;4969397;28;20210;-76
2023/10/19 03:43:21;;;;;;;15.00;7.38;;;6.60;89.20;;;;;;4964806;28;20070;-76
2023/10/19 03:45:52;;;;;;;12.73;6.18;;;6.60;89.30;;;;;;4965427;28;20073;-76
2023/10/19 03:48:35;;;;;;;14.88;7.50;;;6.60;89.60;;;;;;4968799;28;20042;-76
2023/10/19 03:51:02;;;;;;;16.65;7.57;;;6.50;89.50;;;;;;4965434;28;20109;-76
2023/10/19 03:53:31;;;;;;;19.48;7.25;;;6.60;89.20;;;;;;4967363;28;20466;-76
2023/10/19 03:55:58;;;;;;;19.30;8.10;;;6.60;89.00;;;;;;4961573;28;20117;-76
2023/10/19 03:58:30;;;;;;;17.83;7.68;;;6.60;88.90;;;;;;4964372;28;20723;-76
2023/10/19 04:01:01;;;;;;;18.85;7.22;;;6.60;88.60;;;;;;4962928;28;20046;-76
2023/10/19 04:03:30;;;;;;;18.98;8.07;;;6.60;88.50;;;;;;4963268;28;20066;-76
2023/10/19 04:06:00;;;;;;;19.30;8.90;;;6.60;88.30;;;;;;4959919;28;20046;-76
2023/10/19 04:08:31;;;;;;;16.25;8.10;;;6.60;88.50;;;;;;4966115;28;20424;-77
2023/10/19 04:11:21;;;;;;;19.13;7.97;;;6.70;88.40;;;;;;4968323;28;20142;-76
2023/10/19 04:13:53;;;;;;;27.02;8.02;;;6.60;88.10;;;;;;4962059;28;20101;-76
2023/10/19 04:16:20;;;;;;;22.33;8.80;;;6.70;88.30;;;;;;4971595;28;20055;-76
2023/10/19 04:18:48;;;;;;;25.88;8.20;;;6.70;88.10;;;;;;4964730;28;20074;-76
2023/10/19 04:21:15;;;;;;;18.85;7.70;;;6.70;88.30;;;;;;4967144;28;20053;-72
2023/10/19 04:23:42;;;;;;;18.98;8.25;;;6.70;87.90;;;;;;4960825;28;20061;-73
2023/10/19 04:26:13;;;;;;;21.13;8.15;;;6.70;88.40;;;;;;4964173;28;20054;-72
2023/10/19 04:28:50;;;;;;;18.08;8.25;;;6.70;88.20;;;;;;4959873;28;20128;-73
2023/10/19 04:31:18;;;;;;;19.48;8.15;;;6.70;87.90;;;;;;4962973;28;20137;-73
2023/10/19 04:33:46;;;;;;;19.90;8.48;;;6.70;87.60;;;;;;4962932;28;20050;-77
2023/10/19 04:36:19;;;;;;;17.80;7.93;;;6.70;88.00;;;;;;4986543;23;20074;-70
2023/10/19 04:38:47;;;;;;;16.00;8.05;;;6.70;87.90;;;;;;5014137;23;20050;-73
2023/10/19 04:41:15;;;;;;;25.15;9.07;;;6.70;87.80;;;;;;5006704;28;20053;-75
2023/10/19 04:43:49;;;;;;;17.80;8.50;;;6.70;87.50;;;;;;4986146;28;20063;-71
2023/10/19 04:46:18;;;;;;;25.90;8.35;;;6.70;87.70;;;;;;5001445;28;20042;-71
2023/10/19 04:48:46;;;;;;;17.33;7.32;;;6.70;87.80;;;;;;5001606;28;20053;-71
2023/10/19 04:51:13;;;;;;;23.63;8.73;;;6.70;87.90;;;;;;5002510;28;20181;-72
2023/10/19 04:53:42;;;;;;;19.83;8.93;;;6.70;87.90;;;;;;4992779;28;20113;-71
2023/10/19 04:56:09;;;;;;;20.88;7.63;;;6.70;88.10;;;;;;5002684;28;20717;-71
2023/10/19 04:58:36;;;;;;;23.92;8.38;;;6.70;87.90;;;;;;4985288;28;20487;-72
2023/10/19 05:01:05;;;;;;;20.73;8.32;;;6.70;87.70;;;;;;4985147;28;20049;-71
2023/10/19 05:03:32;;;;;;;14.15;6.68;;;6.70;87.80;;;;;;4985258;28;20042;-72
2023/10/19 05:06:00;;;;;;;22.65;8.30;;;6.70;87.90;;;;;;5002218;28;20379;-72
2023/10/19 05:08:27;;;;;;;20.70;8.27;;;6.80;87.70;;;;;;5004427;28;20512;-71
2023/10/19 05:10:55;;;;;;;27.85;8.95;;;6.80;87.70;;;;;;4987461;28;20195;-71
2023/10/19 05:13:25;;;;;;;17.75;7.30;;;6.80;88.10;;;;;;5005185;28;20057;-71
2023/10/19 05:15:54;;;;;;;19.88;8.25;;;6.80;87.80;;;;;;5000701;28;20057;-72
2023/10/19 05:18:22;;;;;;;17.23;7.47;;;6.80;88.20;;;;;;5001195;28;20049;-72
2023/10/19 05:20:55;;;;;;;28.48;8.48;;;6.80;87.90;;;;;;5004472;28;20418;-70
2023/10/19 05:23:26;;;;;;;20.95;8.38;;;6.80;87.90;;;;;;4988691;28;20119;-72
2023/10/19 05:26:03;;;;;;;21.13;8.48;;;6.80;87.50;;;;;;5005997;28;20054;-74
2023/10/19 05:28:30;;;;;;;17.55;7.28;;;6.80;87.50;;;;;;5007405;28;20045;-72
2023/10/19 05:30:59;;;;;;;20.05;8.13;;;6.80;87.40;;;;;;5008381;23;20099;-71
2023/10/19 05:33:30;;;;;;;21.23;7.38;;;6.90;87.50;;;;;;5009990;28;20045;-70
2023/10/19 05:35:57;;;;;;;24.25;8.32;;;6.90;87.30;;;;;;5026063;28;20581;-71
2023/10/19 05:38:27;;;;;;;23.73;8.32;;;6.90;86.90;;;;;;5025887;28;20056;-71
2023/10/19 05:40:57;;;;;;;18.02;7.20;;;6.90;86.60;;;;;;5027462;28;20053;-71
2023/10/19 05:43:25;;;;;;;15.82;8.30;;;7.00;86.90;;;;;;5027745;28;20494;-70
2023/10/19 05:45:53;;;;;;;14.60;6.93;;;7.00;86.70;;;;;;5028219;28;20053;-70
2023/10/19 05:48:24;;;;;;;18.13;7.55;;;7.00;86.80;;;;;;5010943;28;20108;-70
2023/10/19 05:50:51;;;;;;;18.63;7.22;;;7.00;86.70;;;;;;5031073;28;20082;-70
2023/10/19 05:53:18;;;;;;;59.33;10.30;;;7.00;86.60;;;;;;5023742;28;20135;-71
2023/10/19 05:55:46;;;;;;;18.85;8.25;;;7.00;86.60;;;;;;5011544;28;20053;-70
2023/10/19 05:58:13;;;;;;;19.73;8.48;;;7.10;86.30;;;;;;5010079;28;20397;-70
2023/10/19 06:00:42;;;;;;;20.25;8.48;;;7.10;87.00;;;;;;5013485;28;20068;-70
2023/10/19 06:03:12;;;;;;;17.60;8.00;;;7.10;86.70;;;;;;5013023;28;20053;-70
2023/10/19 06:05:39;;;;;;;20.17;8.30;;;7.10;86.70;;;;;;5028017;28;20141;-71
2023/10/19 06:08:06;;;;;;;19.27;8.43;;;7.10;86.90;;;;;;5009415;28;20049;-70
2023/10/19 06:10:35;;;;;;;18.98;8.20;;;7.10;86.90;;;;;;5010160;28;20140;-71
2023/10/19 06:13:03;;;;;;;25.35;8.20;;;7.10;87.20;;;;;;5027310;28;20054;-71
2023/10/19 06:15:31;;;;;;;21.08;8.18;;;7.20;87.00;;;;;;5027968;28;20139;-70
2023/10/19 06:17:58;;;;;;;18.67;7.63;;;7.20;86.60;;;;;;5027785;28;20645;-71
2023/10/19 06:20:26;;;;;;;17.23;7.47;;;7.20;86.60;;;;;;5027948;28;20153;-68
2023/10/19 06:22:55;;;;;;;19.55;7.65;;;7.20;86.80;;;;;;5027462;28;20045;-68
2023/10/19 06:25:24;;;;;;;15.77;7.93;;;7.20;87.40;;;;;;5027762;28;20045;-68
2023/10/19 06:27:53;;;;;;;23.85;8.30;;;7.20;86.90;;;;;;5030527;28;20073;-68
2023/10/19 06:30:22;;;;;;;21.50;7.55;;;7.20;87.20;;;;;;5009680;28;20379;-68
2023/10/19 06:32:53;;;;;;;25.73;8.18;;;7.20;87.40;;;;;;5010306;28;20045;-69
2023/10/19 06:35:22;;;;;;;16.45;8.45;;;7.20;87.30;;;;;;5026657;28;20049;-68
2023/10/19 06:37:49;;;;;;;15.90;7.93;;;7.20;87.60;;;;;;5028154;28;20057;-68
2023/10/19 06:40:17;;;;;;;16.58;7.25;;;7.30;87.40;;;;;;5013988;28;20821;-69
2023/10/19 06:42:45;;;;;;;15.43;7.70;;;7.20;87.50;;;;;;5019427;28;20038;-69
2023/10/19 06:45:13;;;;;;;24.58;9.10;;;7.20;87.90;;;;;;5027786;28;20053;-69
2023/10/19 06:47:45;;;;;;;18.25;6.95;;;7.30;87.50;;;;;;5027251;28;20047;-69
2023/10/19 06:50:16;;;;;;;18.50;7.63;;;7.30;87.50;;;;;;5027136;28;20053;-69
2023/10/19 06:52:44;;;;;;;19.35;7.00;;;7.30;87.50;;;;;;5026630;28;20049;-69
2023/10/19 06:55:46;;;;;;;21.20;8.05;;;7.30;87.50;;;;;;5009458;28;20049;-69
2023/10/19 06:58:07;;;;;;;22.65;6.88;;;7.30;87.70;;;;;;5022437;28;20049;-71
2023/10/19 07:00:34;;;;;;;15.48;6.68;;;7.40;87.80;;;;;;5009268;28;20107;-71
2023/10/19 07:03:03;;;;;;;26.85;8.57;;;7.40;87.80;;;;;;5011415;28;20053;-69
2023/10/19 07:05:32;;;;;;;17.83;7.88;;;7.40;88.30;;;;;;5026614;28;20061;-69
2023/10/19 07:08:02;;;;;;;18.25;7.25;;;7.50;88.20;;;;;;5008950;28;20053;-69
2023/10/19 07:10:29;;;;;;;25.67;8.35;;;7.50;88.40;;;;;;5020937;28;20049;-69
2023/10/19 07:12:57;;;;;;;19.65;7.43;;;7.50;87.70;;;;;;5027032;28;20053;-69
2023/10/19 07:15:29;;;;;;;20.75;7.28;;;7.50;87.90;;;;;;5012466;28;20781;-69
2023/10/19 07:17:58;;;;;;;19.70;7.22;;;7.60;87.80;;;;;;5009091;28;20053;-69
2023/10/19 07:20:25;;;;;;;15.32;7.40;;;7.60;87.60;;;;;;5027105;28;20089;-70
2023/10/19 07:22:54;;;;;;;17.45;6.88;;;7.60;87.60;;;;;;5019963;28;20487;-69
2023/10/19 07:25:25;;;;;;;13.30;7.05;;;7.60;87.30;;;;;;5007905;28;20053;-69
2023/10/19 07:27:53;;;;;;;18.50;8.30;;;7.60;87.70;;;;;;5009449;28;20045;-69
2023/10/19 07:30:22;;;;;;;23.13;7.70;;;7.60;87.90;;;;;;5026271;28;20094;-69
2023/10/19 07:32:58;;;;;;;16.88;7.47;;;7.60;87.80;;;;;;5008948;28;20064;-69
2023/10/19 07:35:30;;;;;;;;;;;7.60;87.60;;;;;;5026387;28;20057;-69
2023/10/19 07:38:03;;;;;;;19.00;7.72;;;7.70;88.30;;;;;;5009421;28;19925;-69
2023/10/19 07:40:31;;;;;;;14.02;6.93;;;7.70;88.20;;;;;;5024597;28;20056;-69
2023/10/19 07:42:59;;;;;;;16.25;7.20;;;7.70;88.00;;;;;;5032210;28;20054;-69
2023/10/19 07:45:26;;;;;;;20.55;7.30;;;7.70;88.20;;;;;;5008174;28;20057;-69
2023/10/19 07:47:55;;;;;;;16.92;7.63;;;7.70;88.20;;;;;;5025565;28;20079;-69
2023/10/19 07:50:24;;;;;;;18.67;7.90;;;7.80;88.20;;;;;;5008128;28;20104;-69
2023/10/19 07:52:53;;;;;;;22.13;8.57;;;7.80;88.20;;;;;;5010854;28;20096;-69
2023/10/19 07:55:24;;;;;;;20.70;8.63;;;7.70;88.00;;;;;;5025727;28;20061;-69
2023/10/19 07:57:52;;;;;;;20.02;8.02;;;7.80;87.90;;;;;;5024491;28;20089;-69
2023/10/19 08:00:23;;;;;;;19.95;8.20;;;7.80;88.90;;;;;;5013740;28;20068;-69
2023/10/19 08:02:55;;;;;;;23.02;8.23;;;7.80;88.00;;;;;;5008128;28;20053;-69
2023/10/19 08:05:25;;;;;;;19.63;8.45;;;7.80;87.80;;;;;;5026214;28;20061;-69
2023/10/19 08:07:57;;;;;;;15.98;7.68;;;7.90;87.50;;;;;;5008118;28;20045;-69
2023/10/19 08:10:26;;;;;;;21.55;8.18;;;7.90;88.40;;;;;;5007650;28;20076;-69
2023/10/19 08:12:55;;;;;;;18.85;7.40;;;7.90;87.80;;;;;;5008318;28;20053;-69
2023/10/19 08:15:22;;;;;;;14.00;6.97;;;8.00;88.50;;;;;;5007106;28;20068;-69
2023/10/19 08:17:53;;;;;;;23.27;7.40;;;8.00;87.30;;;;;;5007982;28;20049;-69
2023/10/19 08:20:24;;;;;;;19.85;7.90;;;8.00;86.90;;;;;;5023800;28;20111;-69
2023/10/19 08:23:01;;;;;;;13.40;7.38;;;8.00;86.80;;;;;;5020964;28;20041;-69
2023/10/19 08:25:29;;;;;;;21.48;7.30;;;8.10;86.90;;;;;;5007909;28;20061;-69
2023/10/19 08:28:01;;;;;;;18.45;7.30;;;8.10;86.70;;;;;;5025285;28;20053;-69
2023/10/19 08:30:31;;;;;;;18.95;8.27;;;8.10;87.60;;;;;;5006551;28;20049;-69
2023/10/19 08:32:58;;;;;;;19.23;7.57;;;8.10;86.40;;;;;;5027046;28;20131;-69
2023/10/19 08:35:28;;;;;;;13.35;6.95;;;8.10;86.20;;;;;;5025870;28;20060;-69
2023/10/19 08:37:59;;;;;;;23.25;7.93;;;8.10;86.80;;;;;;5029924;28;20165;-69
2023/10/19 08:40:29;;;;;;;18.00;8.60;;;8.10;86.00;;;;;;5024696;28;20053;-69
2023/10/19 08:42:59;;;;;;;23.02;8.23;;;8.20;86.30;;;;;;5007393;28;20041;-69
2023/10/19 08:45:26;;;;;;;25.55;7.72;;;8.10;86.30;;;;;;5024674;28;20053;-69
2023/10/19 08:48:00;;;;;;;24.02;8.48;;;8.20;86.50;;;;;;5013756;28;20049;-69
2023/10/19 08:50:30;;;;;;;18.73;7.82;;;8.20;86.20;;;;;;5007578;28;20061;-69
2023/10/19 08:52:59;;;;;;;17.65;7.72;;;8.20;86.30;;;;;;5024952;28;20076;-69
2023/10/19 08:55:27;;;;;;;21.10;9.27;;;8.20;86.00;;;;;;5005528;28;20498;-69
2023/10/19 08:57:58;;;;;;;20.10;8.27;;;8.20;86.00;;;;;;5027634;28;20077;-69
2023/10/19 09:00:27;;;;;;;28.10;8.57;;;8.20;86.40;;;;;;5012484;28;20054;-69
2023/10/19 09:02:56;;;;;;;17.67;8.18;;;8.30;86.90;;;;;;5029701;28;20107;-69
2023/10/19 09:05:25;;;;;;;21.13;8.13;;;8.30;86.50;;;;;;5029375;28;20054;-69
2023/10/19 09:07:56;;;;;;;23.38;10.73;;;8.20;86.60;;;;;;5013662;28;20541;-69
2023/10/19 09:10:32;;;;;;;29.73;9.38;;;8.30;85.80;;;;;;5012245;28;20053;-69
2023/10/19 09:13:04;;;;;;;;;;;8.30;86.40;;;;;;5012635;28;20053;-69
2023/10/19 09:15:35;;;;;;;24.27;8.60;;;8.20;86.10;;;;;;5032439;28;20024;-69
2023/10/19 09:18:15;;;;;;;20.58;9.52;;;8.30;85.70;;;;;;5013129;28;20064;-69
2023/10/19 09:20:54;;;;;;;19.02;8.70;;;8.30;86.80;;;;;;5029141;28;20057;-69
2023/10/19 09:23:23;;;;;;;18.52;9.73;;;8.30;86.30;;;;;;5025520;28;20056;-69
2023/10/19 09:25:52;;;;;;;23.05;9.57;;;8.40;86.00;;;;;;5026866;28;20132;-69
2023/10/19 09:28:26;;;;;;;20.60;8.48;;;8.40;86.10;;;;;;5035306;28;20511;-69
2023/10/19 09:30:53;;;;;;;20.63;8.80;;;8.50;85.90;;;;;;5026937;28;20046;-69
2023/10/19 09:33:24;;;;;;;24.90;9.15;;;8.50;86.10;;;;;;5011129;28;20050;-69
2023/10/19 09:35:54;;;;;;;16.48;8.48;;;8.60;85.20;;;;;;5027148;28;20057;-69
2023/10/19 09:38:24;;;;;;;15.43;8.15;;;8.60;85.60;;;;;;5010762;28;20057;-69
2023/10/19 09:41:00;;;;;;;17.65;8.10;;;8.70;85.80;;;;;;5011488;28;20103;-69
2023/10/19 09:43:38;;;;;;;18.15;8.95;;;8.80;85.50;;;;;;5028164;28;20053;-69
2023/10/19 09:46:12;;;;;;;16.98;7.75;;;8.80;84.90;;;;;;5013639;28;20054;-69
2023/10/19 09:48:48;;;;;;;20.73;7.88;;;8.90;84.80;;;;;;5011462;28;20057;-70
2023/10/19 09:51:19;;;;;;;16.90;8.63;;;9.00;85.50;;;;;;5028667;28;20107;-70
2023/10/19 09:53:53;;;;;;;14.07;8.05;;;9.10;85.20;;;;;;5006465;28;20049;-69
2023/10/19 09:56:29;;;;;;;19.15;8.70;;;9.10;85.10;;;;;;5028242;28;20188;-69
2023/10/19 09:59:05;;;;;;;14.18;8.05;;;9.20;86.10;;;;;;5015648;28;20627;-69
2023/10/19 10:02:13;;;;;;;38.42;19.98;;;9.20;85.80;;;;;;5026526;28;20806;-70
2023/10/19 10:04:45;;;;;;;19.40;8.55;;;9.20;85.10;;;;;;5027431;28;20049;-69
2023/10/19 10:07:13;;;;;;;24.50;8.73;;;9.20;85.10;;;;;;5020235;28;20053;-69
2023/10/19 10:09:49;;;;;;;14.60;8.00;;;9.20;86.40;;;;;;5009803;28;20057;-69
2023/10/19 10:12:25;;;;;;;13.32;7.30;;;9.10;86.00;;;;;;5012868;28;20049;-70
2023/10/19 10:15:10;;;;;;;17.75;7.65;;;9.10;86.90;;;;;;5011157;28;20695;-70
2023/10/19 10:17:39;;;;;;;14.98;7.60;;;9.20;86.90;;;;;;5010483;28;20133;-69
2023/10/19 10:20:13;;;;;;;23.25;8.63;;;9.20;87.10;;;;;;5027702;28;20881;-70
2023/10/19 10:22:44;;;;;;;20.63;9.02;;;9.20;86.90;;;;;;5012070;28;20445;-69
2023/10/19 10:25:30;;;;;;;22.35;8.65;;;9.20;86.60;;;;;;5010288;28;20765;-70
2023/10/19 10:27:58;;;;;;;15.48;7.63;;;9.20;86.50;;;;;;5010318;28;20053;-69
2023/10/19 10:30:25;;;;;;;22.70;9.45;;;9.20;86.90;;;;;;5008751;28;20548;-69
2023/10/19 10:32:55;;;;;;;16.10;7.97;;;9.30;86.60;;;;;;5008809;28;20053;-69
2023/10/19 10:35:39;;;;;;;18.02;8.35;;;9.30;87.50;;;;;;5026961;28;20089;-70
2023/10/19 10:38:14;;;;;;;26.20;8.10;;;9.40;86.70;;;;;;5017902;28;20164;-70
2023/10/19 10:40:51;;;;;;;17.63;8.52;;;9.40;85.90;;;;;;5026767;28;20861;-70
2023/10/19 10:43:21;;;;;;;18.92;8.55;;;9.40;86.00;;;;;;5015795;28;20081;-70
2023/10/19 10:45:52;;;;;;;21.70;9.05;;;9.40;85.60;;;;;;5012992;28;20111;-69
2023/10/19 10:48:19;;;;;;;20.08;9.05;;;9.50;85.80;;;;;;5026384;28;20078;-70
2023/10/19 10:50:47;;;;;;;20.40;8.25;;;9.50;85.70;;;;;;5011791;28;20051;-70
2023/10/19 10:53:18;;;;;;;21.85;9.20;;;9.60;84.90;;;;;;5009593;28;20053;-69
2023/10/19 10:55:45;;;;;;;21.58;8.70;;;9.60;85.50;;;;;;5027126;28;20103;-70
2023/10/19 10:58:18;;;;;;;20.15;8.70;;;9.60;85.90;;;;;;5026268;28;20818;-70
2023/10/19 11:00:50;;;;;;;23.17;10.82;;;9.60;85.80;;;;;;5000871;28;20057;-69
2023/10/19 11:03:18;;;;;;;20.45;8.73;;;9.60;85.40;;;;;;5026553;28;20081;-69
2023/10/19 11:05:46;;;;;;;23.42;10.30;;;9.60;86.00;;;;;;5016463;28;20058;-70
2023/10/19 11:08:20;;;;;;;21.13;8.63;;;9.50;85.80;;;;;;5035770;28;20671;-69
2023/10/19 11:10:48;;;;;;;25.05;9.30;;;9.50;86.80;;;;;;5023093;28;20052;-70
2023/10/19 11:13:17;;;;;;;29.23;10.07;;;9.50;85.80;;;;;;5009716;28;20053;-70
2023/10/19 11:15:56;;;;;;;21.40;9.65;;;9.50;86.50;;;;;;5026642;28;20057;-70
2023/10/19 11:18:35;;;;;;;17.70;9.43;;;9.50;86.40;;;;;;5009432;28;20082;-70
2023/10/19 11:21:18;;;;;;;20.30;9.73;;;9.50;85.70;;;;;;5026294;28;20061;-69
2023/10/19 11:23:46;;;;;;;23.83;11.05;;;9.50;86.60;;;;;;5026542;28;20049;-69
2023/10/19 11:26:20;;;;;;;31.90;11.38;;;9.50;86.30;;;;;;5024886;28;20045;-69
2023/10/19 11:28:56;;;;;;;20.10;9.25;;;9.40;86.20;;;;;;5026937;28;20045;-69
2023/10/19 11:31:24;;;;;;;24.52;9.65;;;9.40;86.80;;;;;;5007827;28;20143;-69
2023/10/19 11:33:53;;;;;;;26.02;11.48;;;9.40;86.30;;;;;;5010660;28;20449;-69
2023/10/19 11:36:21;;;;;;;22.02;11.23;;;9.40;86.40;;;;;;5008054;28;20048;-70
2023/10/19 11:38:53;;;;;;;25.40;10.20;;;9.40;86.80;;;;;;5026663;28;20049;-70
2023/10/19 11:41:20;;;;;;;27.02;11.60;;;9.40;86.30;;;;;;5023956;28;20057;-69
2023/10/19 11:43:48;;;;;;;24.58;10.48;;;9.30;86.70;;;;;;5020779;28;20057;-69
2023/10/19 11:46:25;;;;;;;32.72;14.60;;;9.30;87.70;;;;;;5022050;28;20049;-69
2023/10/19 11:48:52;;;;;;;32.00;14.90;;;9.30;88.80;;;;;;5010131;28;20057;-69
2023/10/19 11:51:20;;;;;;;33.15;14.70;;;9.30;89.00;;;;;;5008282;28;20052;-69
2023/10/19 11:53:47;;;;;;;29.55;13.00;;;9.30;90.20;;;;;;5022624;28;20048;-69
2023/10/19 11:56:16;;;;;;;27.98;13.13;;;9.30;89.70;;;;;;5025503;28;20081;-69
2023/10/19 11:58:44;;;;;;;27.30;10.65;;;9.30;90.60;;;;;;5023373;28;20050;-69
2023/10/19 12:01:13;;;;;;;24.55;10.25;;;9.30;89.90;;;;;;5026254;28;20057;-69
2023/10/19 12:03:41;;;;;;;23.67;10.07;;;9.30;89.60;;;;;;5023560;28;20394;-69
2023/10/19 12:06:10;;;;;;;28.58;10.70;;;9.30;89.60;;;;;;5024454;28;20045;-69
2023/10/19 12:08:39;;;;;;;29.23;11.35;;;9.30;89.60;;;;;;5024177;28;20049;-69
2023/10/19 12:11:16;;;;;;;28.27;12.73;;;9.30;89.40;;;;;;5025290;28;20049;-71
2023/10/19 12:13:44;;;;;;;31.65;13.35;;;9.30;90.50;;;;;;5023772;28;20802;-71
2023/10/19 12:16:17;;;;;;;28.05;12.38;;;9.30;89.80;;;;;;5024951;28;20080;-72
2023/10/19 12:18:50;;;;;;;27.50;12.85;;;9.30;90.60;;;;;;5024561;28;20061;-71
2023/10/19 12:21:17;;;;;;;37.38;16.08;;;9.40;90.70;;;;;;5008094;28;20084;-77
2023/10/19 12:23:51;;;;;;;40.38;15.25;;;9.50;90.70;;;;;;5025117;28;20398;-77
2023/10/19 12:26:19;;;;;;;31.83;14.60;;;9.50;91.20;;;;;;5023574;28;20104;-77
2023/10/19 12:28:51;;;;;;;28.45;10.75;;;9.60;92.20;;;;;;5009156;28;20049;-77
2023/10/19 12:31:18;;;;;;;35.30;14.57;;;9.60;91.10;;;;;;5006247;28;20914;-76
2023/10/19 12:33:46;;;;;;;28.38;11.25;;;9.70;91.20;;;;;;5005949;28;20692;-77
2023/10/19 12:38:52;;;;;;;31.75;13.60;;;9.50;90.70;;;;;;5024612;28;20076;-75
2023/10/19 12:41:19;;;;;;;32.45;14.23;;;9.40;91.70;;;;;;5026977;28;20049;-74
2023/10/19 12:43:47;;;;;;;18.83;9.85;;;9.30;91.90;;;;;;5025691;28;20738;-73
2023/10/19 12:46:15;;;;;;;26.50;10.68;;;9.30;92.70;;;;;;5023002;28;20152;-77
2023/10/19 12:48:43;;;;;;;26.17;10.98;;;9.20;92.70;;;;;;5013770;28;20053;-76
2023/10/19 12:51:13;;;;;;;23.85;10.68;;;9.10;93.20;;;;;;5018188;28;20081;-76
2023/10/19 12:53:40;;;;;;;25.75;12.73;;;9.10;93.90;;;;;;5006912;28;20445;-75
2023/10/19 12:56:10;;;;;;;26.13;11.55;;;9.10;95.10;;;;;;5006099;28;20108;-75
2023/10/19 12:58:41;;;;;;;27.50;10.55;;;9.10;95.30;;;;;;5006891;28;20067;-75
2023/10/19 13:01:16;;;;;;;29.63;11.82;;;9.00;95.50;;;;;;5021982;28;20084;-75
2023/10/19 13:03:47;;;;;;;30.80;11.10;;;9.00;95.70;;;;;;5025716;28;20050;-76
2023/10/19 13:06:15;;;;;;;24.90;11.23;;;9.00;96.10;;;;;;5025148;28;20184;-75
2023/10/19 13:08:42;;;;;;;26.13;11.23;;;9.00;95.20;;;;;;5005939;28;20057;-75
2023/10/19 13:11:14;;;;;;;25.60;11.00;;;9.00;95.10;;;;;;5024660;28;20049;-75
2023/10/19 13:13:46;;;;;;;31.05;13.02;;;8.90;95.10;;;;;;5010104;28;20045;-75
2023/10/19 13:16:15;;;;;;;34.72;15.02;;;8.90;94.90;;;;;;5028677;28;20489;-75
2023/10/19 13:18:44;;;;;;;29.17;13.75;;;9.00;95.60;;;;;;5023015;28;20076;-73
2023/10/19 13:21:16;;;;;;;31.10;12.60;;;9.00;95.00;;;;;;5014398;28;20140;-75
2023/10/19 13:23:45;;;;;;;27.42;12.45;;;9.00;95.10;;;;;;5010373;28;20053;-76
2023/10/19 13:28:46;;;;;;;25.38;12.23;;;9.00;93.90;;;;;;5024399;28;20049;-75
2023/10/19 13:31:14;;;;;;;24.67;11.82;;;9.00;93.60;;;;;;5023311;28;20058;-75
2023/10/19 13:33:43;;;;;;;26.08;11.55;;;9.00;93.60;;;;;;5007790;28;20057;-84
2023/10/19 13:36:12;;;;;;;23.15;11.75;;;9.00;94.10;;;;;;5024718;28;20127;-75